Time;durP1;ratioP1;P1;durP2;ratioP2;P2;SDS_P1;SDS_P2;PMS_P1;PMS_P2;Temp;Humidity;BMP_temperature;BMP_pressure;BME280_temperature;BME280_humidity;BME280_pressure;Samples;Min_cycle;Max_cycle;Signal;HPM_P1;HPM_P2
2022/03/03 00:02:03;;;;;;;26.73;16.10;;;4.40;99.90;;;;;;4999626;28;20034;-69
2022/03/03 00:04:29;;;;;;;24.95;16.42;;;4.30;99.90;;;;;;5019445;28;20186;-70
2022/03/03 00:06:55;;;;;;;26.27;17.20;;;4.20;99.90;;;;;;5019574;28;20121;-69
2022/03/03 00:09:21;;;;;;;25.08;17.00;;;4.20;99.90;;;;;;5019522;28;20117;-69
2022/03/03 00:11:47;;;;;;;28.83;16.83;;;4.10;99.90;;;;;;5020116;28;20029;-69
2022/03/03 00:14:13;;;;;;;30.40;17.25;;;4.10;99.90;;;;;;5020047;28;20334;-69
2022/03/03 00:16:39;;;;;;;28.08;17.27;;;4.10;99.90;;;;;;5019318;28;20073;-69
2022/03/03 00:19:05;;;;;;;27.17;16.75;;;4.20;99.90;;;;;;5020351;28;20301;-70
2022/03/03 00:21:30;;;;;;;28.83;17.40;;;4.20;99.90;;;;;;5019931;28;20030;-67
2022/03/03 00:23:56;;;;;;;25.52;16.73;;;4.20;99.90;;;;;;5019190;28;20022;-69
2022/03/03 00:26:23;;;;;;;28.25;18.25;;;4.20;99.90;;;;;;5035476;28;20044;-70
2022/03/03 00:28:49;;;;;;;26.40;17.25;;;4.20;99.90;;;;;;5019843;28;20351;-69
2022/03/03 00:31:15;;;;;;;27.67;17.73;;;4.00;99.90;;;;;;5019752;28;20085;-70
2022/03/03 00:33:41;;;;;;;25.80;16.95;;;3.90;99.90;;;;;;5018992;28;20298;-69
2022/03/03 00:36:07;;;;;;;26.58;16.50;;;3.90;99.90;;;;;;4986330;28;20117;-70
2022/03/03 00:38:33;;;;;;;27.15;16.77;;;3.90;99.90;;;;;;5002341;28;20132;-70
2022/03/03 00:40:59;;;;;;;27.35;17.23;;;4.00;99.90;;;;;;5019669;28;20057;-70
2022/03/03 00:43:24;;;;;;;25.63;16.73;;;3.90;99.90;;;;;;5018818;28;20033;-69
2022/03/03 00:45:50;;;;;;;29.95;17.88;;;3.90;99.90;;;;;;5018624;28;20092;-70
2022/03/03 00:48:16;;;;;;;26.58;16.27;;;3.80;99.90;;;;;;5018747;28;20026;-70
2022/03/03 00:50:42;;;;;;;25.25;17.15;;;3.80;99.90;;;;;;5002528;28;20065;-70
2022/03/03 00:53:08;;;;;;;24.92;16.27;;;3.80;99.90;;;;;;5018340;28;20394;-70
2022/03/03 00:55:34;;;;;;;27.65;17.02;;;3.80;99.90;;;;;;5019333;28;20033;-69
2022/03/03 00:57:59;;;;;;;27.27;17.40;;;3.90;99.90;;;;;;5018683;28;20095;-70
2022/03/03 01:00:26;;;;;;;27.60;17.08;;;3.90;99.90;;;;;;5018639;28;20083;-69
2022/03/03 01:02:52;;;;;;;25.23;16.15;;;3.80;99.90;;;;;;5019462;28;20037;-70
2022/03/03 01:05:17;;;;;;;27.27;17.75;;;3.80;99.90;;;;;;5019130;28;20033;-69
2022/03/03 01:07:44;;;;;;;26.15;16.52;;;3.80;99.90;;;;;;5018395;28;20026;-70
2022/03/03 01:10:11;;;;;;;27.80;16.85;;;3.70;99.90;;;;;;5018637;28;20026;-68
2022/03/03 01:12:38;;;;;;;30.95;18.23;;;3.70;99.90;;;;;;5018705;28;20026;-69
2022/03/03 01:15:06;;;;;;;28.27;17.73;;;3.60;99.90;;;;;;5018679;28;20030;-70
2022/03/03 01:17:32;;;;;;;28.45;17.83;;;3.70;99.90;;;;;;5019398;28;20278;-69
2022/03/03 01:19:58;;;;;;;28.08;18.08;;;3.70;99.90;;;;;;5018935;28;20044;-70
2022/03/03 01:22:24;;;;;;;28.92;18.25;;;3.70;99.90;;;;;;5018114;28;20122;-70
2022/03/03 01:24:51;;;;;;;29.20;17.33;;;3.70;99.90;;;;;;5018655;28;20026;-69
2022/03/03 01:27:16;;;;;;;30.23;17.40;;;3.60;99.90;;;;;;5018657;28;20033;-68
2022/03/03 01:29:42;;;;;;;27.77;16.23;;;3.60;99.90;;;;;;5018607;28;20274;-68
2022/03/03 01:32:08;;;;;;;25.48;17.20;;;3.50;99.90;;;;;;5017939;28;20045;-68
2022/03/03 01:34:35;;;;;;;30.10;19.05;;;3.60;99.90;;;;;;5017829;28;20279;-69
2022/03/03 01:37:02;;;;;;;28.88;17.88;;;3.60;99.90;;;;;;5017856;28;20099;-69
2022/03/03 01:39:28;;;;;;;28.08;17.73;;;3.50;99.90;;;;;;5018306;28;20058;-69
2022/03/03 01:41:53;;;;;;;27.02;17.35;;;3.50;99.90;;;;;;5018434;28;20049;-69
2022/03/03 01:44:19;;;;;;;29.40;17.73;;;3.50;99.90;;;;;;5018386;28;20309;-69
2022/03/03 01:46:56;;;;;;;27.48;16.63;;;3.40;99.90;;;;;;5017716;28;20026;-69
2022/03/03 01:49:23;;;;;;;28.77;17.58;;;3.40;99.90;;;;;;5001372;28;20322;-69
2022/03/03 01:51:50;;;;;;;26.77;17.67;;;3.40;99.90;;;;;;5018330;28;20091;-69
2022/03/03 01:54:16;;;;;;;29.48;18.08;;;3.40;99.90;;;;;;5017400;28;20140;-69
2022/03/03 01:56:43;;;;;;;30.02;18.00;;;3.40;99.90;;;;;;5018195;28;20182;-69
2022/03/03 01:59:09;;;;;;;30.75;18.65;;;3.40;99.90;;;;;;5017332;28;20275;-69
2022/03/03 02:01:39;;;;;;;33.67;18.55;;;3.40;99.90;;;;;;5017230;28;20033;-68
2022/03/03 02:04:08;;;;;;;27.55;18.48;;;3.50;99.90;;;;;;5018108;28;20030;-69
2022/03/03 02:06:35;;;;;;;29.98;17.58;;;3.50;99.90;;;;;;5017873;28;20038;-69
2022/03/03 02:09:01;;;;;;;27.88;18.13;;;3.50;99.90;;;;;;5018242;28;20294;-68
2022/03/03 02:11:31;;;;;;;32.90;18.60;;;3.30;99.90;;;;;;5017210;28;20022;-68
2022/03/03 02:13:57;;;;;;;32.92;18.20;;;3.20;99.90;;;;;;5017867;28;20302;-69
2022/03/03 02:16:24;;;;;;;28.17;17.58;;;3.30;99.90;;;;;;5000698;28;20053;-69
2022/03/03 02:18:49;;;;;;;31.75;18.23;;;3.30;99.90;;;;;;5017760;28;20125;-69
2022/03/03 02:21:16;;;;;;;26.23;17.15;;;3.40;99.90;;;;;;5017987;28;20354;-68
2022/03/03 02:23:42;;;;;;;29.98;18.83;;;3.30;99.90;;;;;;5017678;28;20030;-69
2022/03/03 02:26:18;;;;;;;29.27;17.48;;;3.30;99.90;;;;;;5017772;28;20428;-69
2022/03/03 02:28:49;;;;;;;27.38;18.05;;;3.30;99.90;;;;;;5017810;28;20026;-69
2022/03/03 02:31:15;;;;;;;31.25;18.38;;;3.30;99.90;;;;;;5017666;28;20297;-69
2022/03/03 02:33:41;;;;;;;29.55;18.35;;;3.30;99.90;;;;;;5016823;28;20029;-69
2022/03/03 02:36:21;;;;;;;32.75;18.88;;;3.20;99.90;;;;;;5000321;28;20125;-69
2022/03/03 02:38:50;;;;;;;33.08;18.30;;;3.20;99.90;;;;;;5017271;28;20054;-69
2022/03/03 02:41:16;;;;;;;28.02;18.02;;;3.20;99.90;;;;;;5017427;28;20120;-69
2022/03/03 02:43:42;;;;;;;27.55;17.70;;;3.10;99.90;;;;;;5000244;28;20392;-69
2022/03/03 02:46:09;;;;;;;29.35;17.65;;;3.00;99.90;;;;;;5016926;28;20104;-69
2022/03/03 02:48:35;;;;;;;30.60;18.42;;;3.10;99.90;;;;;;5017440;28;20030;-69
2022/03/03 02:51:01;;;;;;;31.20;18.48;;;3.10;99.90;;;;;;5017388;28;20088;-69
2022/03/03 02:53:27;;;;;;;30.13;19.17;;;3.10;99.90;;;;;;5017567;28;20400;-69
2022/03/03 02:55:53;;;;;;;30.13;17.70;;;3.10;99.90;;;;;;5017216;28;20034;-70
2022/03/03 02:58:19;;;;;;;30.58;18.83;;;3.00;99.90;;;;;;5017192;28;20034;-70
2022/03/03 03:00:46;;;;;;;30.95;18.88;;;3.00;99.90;;;;;;5017105;28;20053;-70
2022/03/03 03:03:14;;;;;;;33.38;19.45;;;3.00;99.90;;;;;;5016347;28;20306;-70
2022/03/03 03:05:41;;;;;;;26.88;17.73;;;3.10;99.90;;;;;;5016923;28;20039;-69
2022/03/03 03:08:07;;;;;;;29.35;18.33;;;3.10;99.90;;;;;;5017081;28;20026;-69
2022/03/03 03:10:33;;;;;;;30.77;18.45;;;3.10;99.90;;;;;;5032901;28;20121;-69
2022/03/03 03:12:59;;;;;;;28.95;18.88;;;3.00;99.90;;;;;;5016958;28;20121;-69
2022/03/03 03:15:25;;;;;;;29.42;18.77;;;3.00;99.90;;;;;;5016225;28;20033;-69
2022/03/03 03:17:52;;;;;;;29.55;19.45;;;2.90;99.90;;;;;;5017366;28;20025;-69
2022/03/03 03:20:17;;;;;;;28.27;18.20;;;3.00;99.90;;;;;;5017014;28;20034;-70
2022/03/03 03:22:44;;;;;;;30.65;18.38;;;3.00;99.90;;;;;;5016281;28;20049;-69
2022/03/03 03:25:11;;;;;;;31.77;19.17;;;2.90;99.90;;;;;;4999722;28;20033;-69
2022/03/03 03:27:38;;;;;;;30.10;18.45;;;2.90;99.90;;;;;;5017373;28;20321;-69
2022/03/03 03:30:07;;;;;;;29.25;17.77;;;2.90;99.90;;;;;;5017357;28;20026;-69
2022/03/03 03:32:33;;;;;;;26.75;17.90;;;2.80;99.90;;;;;;5017288;28;20028;-69
2022/03/03 03:34:59;;;;;;;32.25;18.83;;;2.80;99.90;;;;;;5016242;28;20129;-69
2022/03/03 03:37:25;;;;;;;28.10;18.23;;;2.80;99.90;;;;;;5016165;28;20040;-69
2022/03/03 03:39:51;;;;;;;26.05;17.38;;;2.80;99.90;;;;;;5019692;28;20054;-69
2022/03/03 03:42:17;;;;;;;29.67;18.63;;;2.80;99.90;;;;;;5020681;28;20058;-69
2022/03/03 03:44:42;;;;;;;29.70;18.40;;;2.70;99.90;;;;;;5019769;28;20072;-69
2022/03/03 03:47:10;;;;;;;29.27;18.52;;;2.70;99.90;;;;;;5020578;28;20180;-69
2022/03/03 03:49:36;;;;;;;31.50;18.80;;;2.60;99.90;;;;;;5020897;28;20372;-69
2022/03/03 03:52:03;;;;;;;30.20;17.83;;;2.60;99.90;;;;;;5020386;28;20030;-69
2022/03/03 03:54:29;;;;;;;29.17;18.25;;;2.70;99.90;;;;;;5020504;28;20112;-70
2022/03/03 03:56:55;;;;;;;29.73;19.13;;;2.70;99.90;;;;;;5020470;28;20157;-69
2022/03/03 03:59:20;;;;;;;26.63;17.42;;;2.70;99.90;;;;;;5020300;28;20038;-69
2022/03/03 04:01:46;;;;;;;27.73;17.25;;;2.60;99.90;;;;;;5003245;28;20121;-69
2022/03/03 04:04:12;;;;;;;27.67;18.75;;;2.60;99.90;;;;;;5020310;28;20048;-69
2022/03/03 04:06:38;;;;;;;28.13;17.25;;;2.50;99.90;;;;;;5019444;28;20046;-69
2022/03/03 04:09:04;;;;;;;29.35;18.17;;;2.50;99.90;;;;;;5003277;28;20306;-69
2022/03/03 04:11:31;;;;;;;27.70;17.42;;;2.60;99.90;;;;;;5002952;28;20030;-70
2022/03/03 04:13:57;;;;;;;29.42;18.23;;;2.50;99.90;;;;;;5019352;28;20034;-69
2022/03/03 04:16:27;;;;;;;29.73;18.45;;;2.50;99.90;;;;;;5020052;28;20045;-69
2022/03/03 04:18:53;;;;;;;30.38;18.88;;;2.50;99.90;;;;;;5003044;28;20038;-70
2022/03/03 04:21:19;;;;;;;29.55;18.23;;;2.50;99.90;;;;;;5019521;28;20037;-69
2022/03/03 04:23:45;;;;;;;29.02;17.92;;;2.50;99.90;;;;;;5019865;28;20038;-69
2022/03/03 04:26:10;;;;;;;33.85;19.30;;;2.60;99.90;;;;;;5019118;28;20093;-71
2022/03/03 04:28:37;;;;;;;27.58;18.08;;;2.50;99.90;;;;;;5002893;28;20033;-69
2022/03/03 04:31:03;;;;;;;31.98;18.05;;;2.50;99.90;;;;;;5019832;28;20029;-71
2022/03/03 04:33:30;;;;;;;29.63;18.13;;;2.40;99.90;;;;;;5019728;28;20034;-69
2022/03/03 04:35:57;;;;;;;30.33;18.33;;;2.30;99.90;;;;;;5019644;28;20030;-69
2022/03/03 04:38:23;;;;;;;30.00;18.83;;;2.40;99.90;;;;;;5018722;28;20030;-69
2022/03/03 04:40:49;;;;;;;34.38;17.95;;;2.50;99.90;;;;;;5018803;28;20029;-69
2022/03/03 04:43:15;;;;;;;29.73;18.40;;;2.40;99.90;;;;;;5019545;28;20287;-69
2022/03/03 04:45:41;;;;;;;30.52;17.58;;;2.50;99.90;;;;;;5019436;28;20097;-70
2022/03/03 04:48:08;;;;;;;28.35;17.85;;;2.40;99.90;;;;;;5018793;28;20061;-70
2022/03/03 04:50:34;;;;;;;27.13;17.85;;;2.30;99.90;;;;;;5018225;28;20400;-69
2022/03/03 04:53:00;;;;;;;28.92;17.70;;;2.30;99.90;;;;;;5018605;28;20112;-69
2022/03/03 04:55:26;;;;;;;29.77;17.88;;;2.30;99.90;;;;;;5018615;28;20041;-69
2022/03/03 04:57:51;;;;;;;28.80;17.98;;;2.30;99.90;;;;;;5018544;28;20302;-70
2022/03/03 05:00:18;;;;;;;31.15;18.25;;;2.40;99.90;;;;;;5019214;28;20382;-69
2022/03/03 05:02:44;;;;;;;28.35;18.13;;;2.30;99.90;;;;;;5018345;28;20049;-66
2022/03/03 05:05:10;;;;;;;29.67;17.80;;;2.30;99.90;;;;;;5018749;28;20050;-66
2022/03/03 05:07:36;;;;;;;27.17;17.73;;;2.30;99.90;;;;;;5018293;28;20029;-66
2022/03/03 05:10:02;;;;;;;30.42;19.20;;;2.30;99.90;;;;;;5018323;28;20018;-65
2022/03/03 05:12:29;;;;;;;29.55;18.45;;;2.20;99.90;;;;;;5019070;28;20045;-65
2022/03/03 05:14:54;;;;;;;28.67;18.30;;;2.20;99.90;;;;;;5018876;28;20030;-66
2022/03/03 05:17:20;;;;;;;30.52;17.10;;;2.30;99.90;;;;;;5019097;28;20049;-67
2022/03/03 05:19:46;;;;;;;27.40;16.92;;;2.20;99.90;;;;;;5018921;28;20100;-66
2022/03/03 05:22:12;;;;;;;27.67;17.38;;;2.20;99.90;;;;;;5018157;28;20059;-66
2022/03/03 05:24:42;;;;;;;31.30;18.27;;;2.20;99.90;;;;;;5017914;28;20206;-66
2022/03/03 05:27:10;;;;;;;31.17;18.73;;;2.20;99.90;;;;;;5018685;28;20077;-66
2022/03/03 05:29:35;;;;;;;29.65;18.50;;;2.30;99.90;;;;;;5019185;28;20018;-65
2022/03/03 05:32:01;;;;;;;29.50;17.58;;;2.30;99.90;;;;;;5017848;28;20432;-65
2022/03/03 05:34:27;;;;;;;31.40;18.85;;;2.30;99.90;;;;;;5017874;28;20072;-65
2022/03/03 05:36:54;;;;;;;30.00;17.95;;;2.30;99.90;;;;;;5018583;28;20029;-66
2022/03/03 05:39:21;;;;;;;32.63;17.80;;;2.30;99.90;;;;;;5018330;28;20050;-66
2022/03/03 05:41:47;;;;;;;26.92;16.35;;;2.30;99.90;;;;;;5001416;28;20026;-65
2022/03/03 05:44:13;;;;;;;29.27;17.65;;;2.20;99.90;;;;;;5001410;28;20413;-65
2022/03/03 05:46:44;;;;;;;32.22;17.85;;;2.20;99.90;;;;;;5018303;28;20048;-66
2022/03/03 05:49:10;;;;;;;28.40;18.00;;;2.30;99.90;;;;;;5017652;28;20034;-66
2022/03/03 05:51:36;;;;;;;29.98;17.95;;;2.20;99.90;;;;;;5017937;28;20036;-66
2022/03/03 05:54:03;;;;;;;28.55;16.85;;;2.20;99.90;;;;;;5017480;28;20124;-66
2022/03/03 05:56:34;;;;;;;29.77;18.25;;;2.20;99.90;;;;;;5018148;28;20026;-66
2022/03/03 05:59:08;;;;;;;29.17;18.17;;;2.20;99.90;;;;;;5018173;28;20412;-66
2022/03/03 06:01:38;;;;;;;34.03;18.33;;;2.20;99.90;;;;;;5017791;28;20034;-66
2022/03/03 06:04:06;;;;;;;28.70;16.13;;;2.30;99.90;;;;;;5017992;28;20028;-66
2022/03/03 06:06:37;;;;;;;28.92;17.35;;;2.20;99.90;;;;;;5017937;28;20103;-66
2022/03/03 06:09:15;;;;;;;25.20;16.10;;;2.10;99.90;;;;;;5017870;28;20040;-66
2022/03/03 06:12:00;;;;;;;29.08;17.55;;;2.10;99.90;;;;;;5018272;28;20432;-66
2022/03/03 06:14:54;;;;;;;26.83;17.40;;;2.10;99.90;;;;;;5018472;28;20084;-66
2022/03/03 06:17:23;;;;;;;27.27;16.83;;;2.10;99.90;;;;;;5016621;28;20115;-65
2022/03/03 06:19:51;;;;;;;27.42;16.45;;;2.10;99.90;;;;;;5017797;28;20036;-65
2022/03/03 06:22:19;;;;;;;26.30;16.05;;;2.10;99.90;;;;;;5001093;28;20084;-66
2022/03/03 06:24:45;;;;;;;29.80;16.75;;;2.20;99.90;;;;;;5016928;28;20040;-68
2022/03/03 06:27:12;;;;;;;29.45;16.58;;;2.20;99.90;;;;;;5017812;28;20045;-66
2022/03/03 06:29:38;;;;;;;25.70;16.35;;;2.20;99.90;;;;;;5016618;28;20279;-66
2022/03/03 06:32:05;;;;;;;27.10;16.98;;;2.20;99.90;;;;;;5000152;28;20461;-67
2022/03/03 06:34:31;;;;;;;27.63;17.38;;;2.20;99.90;;;;;;5016724;28;20030;-67
2022/03/03 06:36:57;;;;;;;27.95;16.20;;;2.20;99.90;;;;;;5017339;28;20045;-66
2022/03/03 06:39:23;;;;;;;27.25;17.02;;;2.20;99.90;;;;;;5016840;28;20046;-66
2022/03/03 06:41:51;;;;;;;27.63;16.30;;;2.20;99.90;;;;;;5016499;28;20037;-66
2022/03/03 06:44:18;;;;;;;33.13;16.65;;;2.20;99.90;;;;;;5017308;28;20045;-67
2022/03/03 06:46:44;;;;;;;28.60;16.85;;;2.30;99.90;;;;;;5016382;28;20035;-67
2022/03/03 06:49:12;;;;;;;25.58;16.48;;;2.40;99.90;;;;;;5016460;28;20025;-68
2022/03/03 06:51:43;;;;;;;25.80;16.25;;;2.40;99.90;;;;;;5016464;28;20026;-67
2022/03/03 06:54:15;;;;;;;27.10;16.27;;;2.40;99.90;;;;;;5016367;28;20034;-68
2022/03/03 06:56:49;;;;;;;29.67;16.30;;;2.40;99.90;;;;;;5016961;28;20358;-66
2022/03/03 06:59:17;;;;;;;33.95;16.58;;;2.40;99.90;;;;;;5016992;28;20120;-65
2022/03/03 07:01:44;;;;;;;27.83;16.33;;;2.40;99.90;;;;;;4999985;28;20408;-68
2022/03/03 07:04:13;;;;;;;30.80;18.02;;;2.40;99.90;;;;;;5016864;28;20026;-65
2022/03/03 07:06:40;;;;;;;28.55;17.00;;;2.50;99.90;;;;;;4999750;28;20180;-67
2022/03/03 07:09:08;;;;;;;32.40;18.13;;;2.50;99.90;;;;;;5000108;28;20038;-67
2022/03/03 07:11:34;;;;;;;29.77;17.13;;;2.50;99.90;;;;;;5016818;28;20034;-67
2022/03/03 07:14:00;;;;;;;34.75;18.48;;;2.50;99.90;;;;;;5016241;28;20041;-67
2022/03/03 07:16:42;;;;;;;26.98;17.38;;;2.60;99.90;;;;;;5016204;28;20109;-67
2022/03/03 07:19:28;;;;;;;22.20;13.00;;;2.60;99.90;;;;;;5015959;28;20093;-66
2022/03/03 07:22:10;;;;;;;30.35;16.95;;;2.60;99.90;;;;;;5016997;28;20287;-68
2022/03/03 07:24:45;;;;;;;27.02;16.30;;;2.70;99.90;;;;;;5017369;28;20389;-69
2022/03/03 07:27:21;;;;;;;27.98;17.35;;;2.70;99.90;;;;;;4999875;28;20049;-66
2022/03/03 07:30:05;;;;;;;25.10;16.35;;;2.90;99.90;;;;;;5016085;28;20034;-68
2022/03/03 07:32:53;;;;;;;28.92;17.45;;;2.90;99.90;;;;;;5017415;28;20030;-67
2022/03/03 07:35:22;;;;;;;26.75;16.65;;;3.00;99.90;;;;;;5016798;28;20048;-62
2022/03/03 07:37:59;;;;;;;28.83;17.33;;;3.20;99.90;;;;;;5016211;28;20026;-64
2022/03/03 07:40:30;;;;;;;26.02;16.05;;;3.30;99.90;;;;;;5016833;28;20133;-65
2022/03/03 07:42:57;;;;;;;25.25;15.77;;;3.40;99.90;;;;;;5016096;28;20045;-66
2022/03/03 07:45:24;;;;;;;26.45;16.33;;;3.50;99.90;;;;;;5016755;28;20064;-64
2022/03/03 07:47:53;;;;;;;26.85;16.55;;;3.70;99.90;;;;;;5016736;28;20021;-64
2022/03/03 07:50:19;;;;;;;26.52;16.55;;;3.80;99.90;;;;;;5016929;28;20034;-64
2022/03/03 07:52:45;;;;;;;27.80;16.98;;;3.90;99.90;;;;;;5016682;28;20026;-64
2022/03/03 07:55:11;;;;;;;24.95;15.68;;;4.00;99.90;;;;;;5015929;28;20041;-64
2022/03/03 07:57:51;;;;;;;26.77;16.23;;;4.00;99.90;;;;;;5015931;28;20042;-64
2022/03/03 08:00:18;;;;;;;25.13;15.90;;;4.20;99.90;;;;;;5015916;28;20034;-65
2022/03/03 08:02:45;;;;;;;26.55;16.98;;;4.30;99.90;;;;;;4999592;28;20038;-65
2022/03/03 08:05:12;;;;;;;27.25;16.60;;;4.40;99.90;;;;;;5016040;28;20037;-65
2022/03/03 08:07:46;;;;;;;25.38;15.63;;;4.50;99.90;;;;;;5016500;28;20022;-64
2022/03/03 08:10:15;;;;;;;26.30;16.05;;;4.60;99.90;;;;;;5015765;28;20117;-65
2022/03/03 08:12:42;;;;;;;28.20;16.17;;;4.60;99.90;;;;;;5015793;28;20038;-65
2022/03/03 08:15:10;;;;;;;23.63;16.38;;;4.70;99.90;;;;;;5016359;28;20069;-66
2022/03/03 08:17:37;;;;;;;24.42;15.52;;;4.90;99.90;;;;;;5015639;28;20037;-64
2022/03/03 08:20:06;;;;;;;26.05;16.58;;;5.00;99.90;;;;;;5016324;28;20109;-64
2022/03/03 08:22:33;;;;;;;25.13;16.23;;;5.10;99.90;;;;;;5015702;28;20099;-64
2022/03/03 08:24:59;;;;;;;24.70;15.63;;;5.30;99.90;;;;;;5017251;28;20048;-65
2022/03/03 08:27:26;;;;;;;24.23;15.95;;;5.30;99.90;;;;;;5019718;28;20029;-64
2022/03/03 08:29:53;;;;;;;22.05;14.77;;;5.30;99.90;;;;;;5019654;28;20030;-64
2022/03/03 08:32:21;;;;;;;27.05;16.08;;;5.50;99.90;;;;;;5018846;28;20033;-65
2022/03/03 08:35:14;;;;;;;24.45;15.80;;;5.60;99.90;;;;;;5019312;28;20048;-64
2022/03/03 08:37:50;;;;;;;23.33;14.85;;;5.70;99.90;;;;;;5018662;28;20029;-65
2022/03/03 08:40:17;;;;;;;22.73;15.13;;;5.80;99.90;;;;;;5019662;28;20053;-65
2022/03/03 08:42:48;;;;;;;25.92;16.13;;;5.80;99.90;;;;;;5018602;28;20041;-64
2022/03/03 08:45:18;;;;;;;29.03;16.10;;;5.90;99.90;;;;;;5018978;28;20037;-65
2022/03/03 08:47:48;;;;;;;28.75;15.90;;;6.00;99.90;;;;;;5019472;28;20029;-65
2022/03/03 08:50:15;;;;;;;27.13;16.40;;;6.20;99.90;;;;;;5018733;28;20421;-65
2022/03/03 08:52:43;;;;;;;28.30;16.45;;;6.30;99.90;;;;;;5018857;28;20026;-65
2022/03/03 08:55:11;;;;;;;25.38;15.60;;;6.40;99.90;;;;;;5019717;28;20038;-65
2022/03/03 08:57:38;;;;;;;25.58;15.50;;;6.50;99.90;;;;;;5002244;28;20176;-65
2022/03/03 09:00:07;;;;;;;26.60;16.27;;;6.50;99.90;;;;;;5018501;28;20394;-65
2022/03/03 09:02:33;;;;;;;24.35;15.95;;;6.50;99.90;;;;;;5019180;28;20104;-65
2022/03/03 09:04:59;;;;;;;25.95;15.90;;;6.40;99.90;;;;;;5019056;28;20425;-65
2022/03/03 09:07:25;;;;;;;24.33;15.15;;;6.40;99.90;;;;;;5019168;28;20013;-65
2022/03/03 09:09:50;;;;;;;23.88;16.45;;;6.40;99.90;;;;;;5019358;28;20121;-64
2022/03/03 09:12:16;;;;;;;27.05;16.60;;;6.40;99.90;;;;;;5019574;28;20393;-65
2022/03/03 09:14:42;;;;;;;30.55;16.60;;;6.60;99.90;;;;;;5018962;28;20268;-65
2022/03/03 09:17:08;;;;;;;26.42;16.23;;;6.70;99.90;;;;;;5018814;28;20049;-66
2022/03/03 09:19:34;;;;;;;26.02;16.10;;;6.80;99.90;;;;;;5018880;28;20060;-64
2022/03/03 09:22:00;;;;;;;24.85;16.13;;;6.70;99.90;;;;;;5018956;28;20034;-65
2022/03/03 09:24:26;;;;;;;25.65;16.63;;;6.90;99.90;;;;;;5018560;28;20030;-65
2022/03/03 09:26:54;;;;;;;24.42;16.70;;;6.90;99.90;;;;;;5018720;28;20096;-65
2022/03/03 09:29:21;;;;;;;25.38;17.30;;;7.00;99.90;;;;;;5001891;28;20104;-65
2022/03/03 09:31:47;;;;;;;28.35;17.65;;;7.10;99.90;;;;;;5018610;28;20088;-65
2022/03/03 09:34:13;;;;;;;27.15;17.40;;;7.10;99.90;;;;;;5018093;28;20418;-65
2022/03/03 09:36:39;;;;;;;28.40;18.15;;;7.20;99.90;;;;;;5017857;28;20345;-65
2022/03/03 09:39:05;;;;;;;25.80;17.70;;;7.30;99.90;;;;;;5018394;28;20085;-65
2022/03/03 09:41:31;;;;;;;29.63;17.25;;;7.20;99.90;;;;;;5018963;28;20173;-65
2022/03/03 09:43:58;;;;;;;27.08;17.42;;;7.20;99.90;;;;;;5017711;28;20096;-65
2022/03/03 09:46:24;;;;;;;25.67;16.85;;;7.30;99.90;;;;;;5001442;28;20076;-65
2022/03/03 09:48:51;;;;;;;26.45;17.52;;;7.30;99.90;;;;;;5017551;28;20095;-65
2022/03/03 09:51:17;;;;;;;27.55;17.85;;;7.40;99.90;;;;;;5017548;28;20306;-65
2022/03/03 09:53:43;;;;;;;25.10;16.88;;;7.70;99.90;;;;;;5018183;28;20036;-65
2022/03/03 09:56:10;;;;;;;27.95;17.13;;;7.80;99.90;;;;;;5018193;28;20149;-65
2022/03/03 09:58:35;;;;;;;29.05;17.42;;;7.80;99.90;;;;;;5018043;28;20076;-64
2022/03/03 10:01:02;;;;;;;25.75;17.35;;;7.80;99.90;;;;;;5017352;28;20127;-65
2022/03/03 10:03:33;;;;;;;26.27;16.00;;;7.90;99.90;;;;;;5018079;28;20306;-65
2022/03/03 10:06:00;;;;;;;25.52;17.67;;;7.80;99.90;;;;;;5017821;28;20104;-65
2022/03/03 10:08:28;;;;;;;24.65;16.65;;;7.70;99.90;;;;;;5017849;28;20052;-65
2022/03/03 10:11:03;;;;;;;26.23;15.40;;;7.90;99.90;;;;;;5017010;28;20052;-65
2022/03/03 10:13:52;;;;;;;22.70;15.13;;;8.00;99.90;;;;;;5017148;28;20030;-65
2022/03/03 10:16:21;;;;;;;27.33;16.17;;;8.00;99.90;;;;;;5017808;28;20286;-65
2022/03/03 10:19:03;;;;;;;25.00;16.00;;;8.30;99.90;;;;;;5017669;28;20349;-66
2022/03/03 10:21:33;;;;;;;26.27;15.95;;;8.50;99.90;;;;;;5016802;28;20325;-65
2022/03/03 10:24:00;;;;;;;25.45;17.23;;;8.60;99.90;;;;;;5017556;28;20042;-65
2022/03/03 10:26:38;;;;;;;27.40;16.23;;;8.60;99.90;;;;;;5016737;28;20397;-65
2022/03/03 10:29:16;;;;;;;26.23;15.98;;;8.90;99.90;;;;;;5016661;28;20030;-65
2022/03/03 10:31:50;;;;;;;25.23;15.88;;;9.30;99.90;;;;;;5016774;28;20045;-65
2022/03/03 10:34:21;;;;;;;26.15;16.25;;;9.80;99.90;;;;;;5017367;28;20061;-66
2022/03/03 10:37:07;;;;;;;26.40;16.90;;;10.20;99.90;;;;;;5017334;28;20080;-63
2022/03/03 10:39:44;;;;;;;25.25;16.38;;;10.50;99.90;;;;;;5017130;28;20068;-64
2022/03/03 10:42:18;;;;;;;24.45;15.68;;;11.10;99.90;;;;;;5017258;28;20041;-64
2022/03/03 10:44:45;;;;;;;22.80;15.25;;;11.90;99.90;;;;;;5017252;28;20037;-64
2022/03/03 10:47:18;;;;;;;21.85;15.50;;;12.30;99.90;;;;;;5016551;28;20028;-64
2022/03/03 10:49:47;;;;;;;22.83;15.18;;;13.10;99.90;;;;;;5017268;28;20291;-65
2022/03/03 10:52:22;;;;;;;21.60;15.73;;;13.70;99.90;;;;;;5017596;28;20022;-66
2022/03/03 10:55:00;;;;;;;23.35;15.55;;;13.00;99.90;;;;;;5000064;28;20381;-65
2022/03/03 10:57:54;;;;;;;23.55;15.68;;;12.90;99.90;;;;;;5017163;28;20436;-65
2022/03/03 11:00:28;;;;;;;24.65;16.40;;;13.30;99.90;;;;;;5017468;28;20025;-65
2022/03/03 11:02:56;;;;;;;20.73;15.30;;;14.30;99.90;;;;;;5017367;28;20040;-65
2022/03/03 11:05:25;;;;;;;24.55;16.58;;;14.10;99.90;;;;;;5016929;28;20308;-65
2022/03/03 11:07:53;;;;;;;21.38;15.40;;;13.70;99.90;;;;;;5016969;28;20030;-65
2022/03/03 11:10:24;;;;;;;25.38;15.23;;;14.50;99.90;;;;;;5016138;28;20104;-65
2022/03/03 11:12:51;;;;;;;20.42;14.65;;;14.80;99.90;;;;;;5016975;28;20058;-65
2022/03/03 11:15:22;;;;;;;19.48;13.65;;;14.30;99.90;;;;;;5016347;28;20033;-65
2022/03/03 11:17:50;;;;;;;21.25;14.95;;;14.40;99.90;;;;;;5016992;28;20113;-65
2022/03/03 11:20:17;;;;;;;21.02;14.57;;;15.60;99.90;;;;;;5016961;28;20048;-66
2022/03/03 11:22:44;;;;;;;20.48;15.10;;;16.00;99.90;;;;;;5017246;28;20105;-66
2022/03/03 11:25:19;;;;;;;19.23;14.63;;;16.60;99.90;;;;;;4999673;28;20030;-65
2022/03/03 11:27:46;;;;;;;21.80;15.23;;;16.10;99.90;;;;;;5016915;28;20022;-66
2022/03/03 11:30:16;;;;;;;20.70;14.50;;;16.40;99.90;;;;;;5016849;28;20306;-65
2022/03/03 11:32:42;;;;;;;19.58;15.02;;;16.20;99.90;;;;;;5016884;28;20041;-69
2022/03/03 11:35:14;;;;;;;20.90;14.02;;;16.20;99.90;;;;;;5017273;28;20026;-66
2022/03/03 11:37:46;;;;;;;17.40;13.97;;;17.00;99.00;;;;;;5016821;28;20113;-63
2022/03/03 11:40:16;;;;;;;20.07;14.47;;;17.90;95.90;;;;;;5016554;28;20304;-65
2022/03/03 11:42:55;;;;;;;19.60;15.10;;;17.10;96.20;;;;;;5017008;28;20042;-65
2022/03/03 11:45:34;;;;;;;21.95;15.25;;;16.60;96.20;;;;;;5016754;28;20033;-64
2022/03/03 11:48:20;;;;;;;20.40;14.82;;;16.60;96.20;;;;;;5015822;28;20026;-65
2022/03/03 11:50:53;;;;;;;19.92;14.73;;;17.10;95.90;;;;;;4999624;28;20018;-65
2022/03/03 11:53:24;;;;;;;21.58;15.23;;;16.00;95.60;;;;;;5016647;28;20125;-65
2022/03/03 11:55:51;;;;;;;22.95;14.88;;;16.60;96.70;;;;;;5015885;28;20418;-66
2022/03/03 11:58:39;;;;;;;23.02;14.77;;;17.70;95.00;;;;;;5016557;28;20297;-66
2022/03/03 12:01:09;;;;;;;19.75;14.88;;;17.80;93.70;;;;;;5019258;28;20421;-66
2022/03/03 12:03:59;;;;;;;19.08;14.60;;;18.40;92.20;;;;;;5020040;28;20085;-67
2022/03/03 12:06:47;;;;;;;19.60;14.15;;;18.90;92.00;;;;;;5019304;28;20025;-66
2022/03/03 12:09:26;;;;;;;19.45;14.45;;;19.20;90.10;;;;;;5019319;28;20390;-65
2022/03/03 12:12:28;;;;;;;20.10;14.65;;;19.70;89.70;;;;;;5020147;28;20121;-66
2022/03/03 12:14:57;;;;;;;18.48;14.43;;;20.30;86.10;;;;;;5019400;28;20044;-66
2022/03/03 12:17:43;;;;;;;19.48;14.50;;;20.00;83.50;;;;;;5019938;28;20022;-66
2022/03/03 12:20:24;;;;;;;18.95;14.35;;;19.90;81.20;;;;;;5019977;28;20073;-66
2022/03/03 12:23:23;;;;;;;19.73;14.55;;;19.30;80.90;;;;;;5019937;28;20018;-65
2022/03/03 12:25:54;;;;;;;19.02;14.90;;;19.60;82.20;;;;;;5019415;28;20098;-66
2022/03/03 12:28:40;;;;;;;20.25;14.90;;;20.30;80.50;;;;;;5020181;28;20022;-66
2022/03/03 12:31:24;;;;;;;21.60;14.27;;;20.10;79.80;;;;;;5019160;28;20030;-67
2022/03/03 12:34:00;;;;;;;19.05;13.82;;;20.80;78.00;;;;;;5019855;28;20389;-66
2022/03/03 12:36:29;;;;;;;18.13;14.40;;;21.50;75.30;;;;;;5019742;28;20457;-66
2022/03/03 12:38:55;;;;;;;17.27;14.25;;;20.80;75.60;;;;;;5019483;28;20057;-66
2022/03/03 12:41:26;;;;;;;17.45;14.27;;;22.00;73.50;;;;;;5019868;28;20117;-66
2022/03/03 12:43:52;;;;;;;18.33;13.73;;;21.90;69.90;;;;;;5019675;28;20049;-66
2022/03/03 12:46:18;;;;;;;20.83;14.80;;;22.00;70.80;;;;;;5018757;28;20038;-66